sensor_id;sensor_type;location;lat;lon;timestamp;temperature;humidity
9943;DHT22;5010;45.080;7.634;2024-01-30T00:00:55;5.10;99.90
9943;DHT22;5010;45.080;7.634;2024-01-30T00:03:22;5.10;99.90
9943;DHT22;5010;45.080;7.634;2024-01-30T00:05:50;5.10;99.90
9943;DHT22;5010;45.080;7.634;2024-01-30T00:08:18;5.10;1.00
9943;DHT22;5010;45.080;7.634;2024-01-30T00:10:46;5.10;1.00
9943;DHT22;5010;45.080;7.634;2024-01-30T00:13:13;5.00;99.90
9943;DHT22;5010;45.080;7.634;2024-01-30T00:15:43;5.00;99.90
9943;DHT22;5010;45.080;7.634;2024-01-30T00:18:12;4.90;99.90
9943;DHT22;5010;45.080;7.634;2024-01-30T00:20:40;4.90;99.90
9943;DHT22;5010;45.080;7.634;2024-01-30T00:23:08;5.00;1.00
9943;DHT22;5010;45.080;7.634;2024-01-30T00:25:36;5.10;99.90
9943;DHT22;5010;45.080;7.634;2024-01-30T00:28:04;5.10;99.90
9943;DHT22;5010;45.080;7.634;2024-01-30T00:30:32;5.20;1.00
9943;DHT22;5010;45.080;7.634;2024-01-30T00:33:00;5.10;1.00
9943;DHT22;5010;45.080;7.634;2024-01-30T00:35:29;5.00;99.90
9943;DHT22;5010;45.080;7.634;2024-01-30T00:37:57;4.90;99.90
9943;DHT22;5010;45.080;7.634;2024-01-30T00:40:25;4.90;99.90
9943;DHT22;5010;45.080;7.634;2024-01-30T00:42:53;4.90;99.90
9943;DHT22;5010;45.080;7.634;2024-01-30T00:45:20;4.80;99.90
9943;DHT22;5010;45.080;7.634;2024-01-30T00:47:48;4.80;1.00
9943;DHT22;5010;45.080;7.634;2024-01-30T00:50:16;4.70;1.00
9943;DHT22;5010;45.080;7.634;2024-01-30T00:52:45;4.80;1.00
9943;DHT22;5010;45.080;7.634;2024-01-30T00:55:13;4.80;1.00
9943;DHT22;5010;45.080;7.634;2024-01-30T00:57:41;4.80;1.00
9943;DHT22;5010;45.080;7.634;2024-01-30T01:00:09;4.80;1.00
9943;DHT22;5010;45.080;7.634;2024-01-30T01:02:38;4.80;1.00
9943;DHT22;5010;45.080;7.634;2024-01-30T01:05:07;4.80;1.00
9943;DHT22;5010;45.080;7.634;2024-01-30T01:07:34;4.70;1.00
9943;DHT22;5010;45.080;7.634;2024-01-30T01:10:04;4.70;1.00
9943;DHT22;5010;45.080;7.634;2024-01-30T01:12:32;4.70;1.00
9943;DHT22;5010;45.080;7.634;2024-01-30T01:15:00;4.70;1.00
9943;DHT22;5010;45.080;7.634;2024-01-30T01:17:28;4.70;1.00
9943;DHT22;5010;45.080;7.634;2024-01-30T01:19:56;4.80;1.00
9943;DHT22;5010;45.080;7.634;2024-01-30T01:22:24;4.80;1.00
9943;DHT22;5010;45.080;7.634;2024-01-30T01:24:51;4.90;1.00
9943;DHT22;5010;45.080;7.634;2024-01-30T01:27:21;4.90;99.90
9943;DHT22;5010;45.080;7.634;2024-01-30T01:29:48;4.80;99.90
9943;DHT22;5010;45.080;7.634;2024-01-30T01:32:16;4.80;1.00
9943;DHT22;5010;45.080;7.634;2024-01-30T01:34:44;4.70;1.00
9943;DHT22;5010;45.080;7.634;2024-01-30T01:37:12;4.70;1.00
9943;DHT22;5010;45.080;7.634;2024-01-30T01:39:40;4.70;1.00
9943;DHT22;5010;45.080;7.634;2024-01-30T01:42:07;4.60;1.00
9943;DHT22;5010;45.080;7.634;2024-01-30T01:44:37;4.70;1.00
9943;DHT22;5010;45.080;7.634;2024-01-30T01:47:05;4.70;1.00
9943;DHT22;5010;45.080;7.634;2024-01-30T01:49:32;4.70;1.00
9943;DHT22;5010;45.080;7.634;2024-01-30T01:52:00;4.70;1.00
9943;DHT22;5010;45.080;7.634;2024-01-30T01:54:29;4.70;1.00
9943;DHT22;5010;45.080;7.634;2024-01-30T01:56:57;4.70;1.00
9943;DHT22;5010;45.080;7.634;2024-01-30T01:59:25;4.70;1.00
9943;DHT22;5010;45.080;7.634;2024-01-30T02:01:55;4.70;1.00
9943;DHT22;5010;45.080;7.634;2024-01-30T02:04:23;4.70;1.00
9943;DHT22;5010;45.080;7.634;2024-01-30T02:06:52;4.70;1.00
9943;DHT22;5010;45.080;7.634;2024-01-30T02:09:20;4.60;1.00
9943;DHT22;5010;45.080;7.634;2024-01-30T02:11:47;4.60;1.00
9943;DHT22;5010;45.080;7.634;2024-01-30T02:14:15;4.50;1.00
9943;DHT22;5010;45.080;7.634;2024-01-30T02:16:43;4.50;1.00
9943;DHT22;5010;45.080;7.634;2024-01-30T02:19:12;4.50;1.00
9943;DHT22;5010;45.080;7.634;2024-01-30T02:21:42;4.50;1.00
9943;DHT22;5010;45.080;7.634;2024-01-30T02:24:09;4.60;20.70
9943;DHT22;5010;45.080;7.634;2024-01-30T02:26:37;4.60;1.00
9943;DHT22;5010;45.080;7.634;2024-01-30T02:29:05;4.70;1.00
9943;DHT22;5010;45.080;7.634;2024-01-30T02:31:33;4.70;1.00
9943;DHT22;5010;45.080;7.634;2024-01-30T02:34:00;4.70;1.00
9943;DHT22;5010;45.080;7.634;2024-01-30T02:36:28;4.70;1.00
9943;DHT22;5010;45.080;7.634;2024-01-30T02:38:57;4.70;1.00
9943;DHT22;5010;45.080;7.634;2024-01-30T02:41:25;4.70;1.00
9943;DHT22;5010;45.080;7.634;2024-01-30T02:43:53;4.70;1.00
9943;DHT22;5010;45.080;7.634;2024-01-30T02:46:21;4.70;1.00
9943;DHT22;5010;45.080;7.634;2024-01-30T02:48:49;4.70;1.00
9943;DHT22;5010;45.080;7.634;2024-01-30T02:51:17;4.70;1.00
9943;DHT22;5010;45.080;7.634;2024-01-30T02:53:44;4.70;1.00
9943;DHT22;5010;45.080;7.634;2024-01-30T02:56:14;4.70;1.00
9943;DHT22;5010;45.080;7.634;2024-01-30T02:58:42;4.60;1.00
9943;DHT22;5010;45.080;7.634;2024-01-30T03:01:09;4.60;1.00
9943;DHT22;5010;45.080;7.634;2024-01-30T03:03:36;4.60;1.00
9943;DHT22;5010;45.080;7.634;2024-01-30T03:06:05;4.70;1.00
9943;DHT22;5010;45.080;7.634;2024-01-30T03:08:33;4.70;1.00
9943;DHT22;5010;45.080;7.634;2024-01-30T03:11:01;4.70;1.00
9943;DHT22;5010;45.080;7.634;2024-01-30T03:13:30;4.70;1.00
9943;DHT22;5010;45.080;7.634;2024-01-30T03:15:58;4.60;1.00
9943;DHT22;5010;45.080;7.634;2024-01-30T03:18:26;4.50;1.00
9943;DHT22;5010;45.080;7.634;2024-01-30T03:20:53;4.40;23.00
9943;DHT22;5010;45.080;7.634;2024-01-30T03:23:21;4.40;44.80
9943;DHT22;5010;45.080;7.634;2024-01-30T03:25:49;4.40;52.90
9943;DHT22;5010;45.080;7.634;2024-01-30T03:28:17;4.40;99.90
9943;DHT22;5010;45.080;7.634;2024-01-30T03:30:46;4.50;52.80
9943;DHT22;5010;45.080;7.634;2024-01-30T03:33:14;4.50;1.00
9943;DHT22;5010;45.080;7.634;2024-01-30T03:35:42;4.50;1.00
9943;DHT22;5010;45.080;7.634;2024-01-30T03:38:10;4.50;1.00
9943;DHT22;5010;45.080;7.634;2024-01-30T03:40:38;4.50;1.00
9943;DHT22;5010;45.080;7.634;2024-01-30T03:43:05;4.60;1.00
9943;DHT22;5010;45.080;7.634;2024-01-30T03:45:33;4.60;1.00
9943;DHT22;5010;45.080;7.634;2024-01-30T03:48:03;4.60;1.00
9943;DHT22;5010;45.080;7.634;2024-01-30T03:50:31;4.60;1.00
9943;DHT22;5010;45.080;7.634;2024-01-30T03:52:59;4.60;1.00
9943;DHT22;5010;45.080;7.634;2024-01-30T03:55:26;4.60;1.00
9943;DHT22;5010;45.080;7.634;2024-01-30T03:57:54;4.50;1.00
9943;DHT22;5010;45.080;7.634;2024-01-30T04:00:22;4.50;1.00
9943;DHT22;5010;45.080;7.634;2024-01-30T04:02:50;4.50;1.00
9943;DHT22;5010;45.080;7.634;2024-01-30T04:05:20;4.60;1.00
9943;DHT22;5010;45.080;7.634;2024-01-30T04:07:47;4.70;1.00
9943;DHT22;5010;45.080;7.634;2024-01-30T04:10:16;4.80;99.90
9943;DHT22;5010;45.080;7.634;2024-01-30T04:12:43;4.80;99.90
9943;DHT22;5010;45.080;7.634;2024-01-30T04:15:11;4.70;99.90
9943;DHT22;5010;45.080;7.634;2024-01-30T04:17:40;4.60;1.00
9943;DHT22;5010;45.080;7.634;2024-01-30T04:20:09;4.50;1.00
9943;DHT22;5010;45.080;7.634;2024-01-30T04:22:41;4.40;1.00
9943;DHT22;5010;45.080;7.634;2024-01-30T04:25:09;4.30;1.00
9943;DHT22;5010;45.080;7.634;2024-01-30T04:27:37;4.20;92.40
9943;DHT22;5010;45.080;7.634;2024-01-30T04:30:06;4.20;99.90
9943;DHT22;5010;45.080;7.634;2024-01-30T04:32:34;4.20;99.90
9943;DHT22;5010;45.080;7.634;2024-01-30T04:35:02;4.20;99.90
9943;DHT22;5010;45.080;7.634;2024-01-30T04:37:30;4.10;99.90
9943;DHT22;5010;45.080;7.634;2024-01-30T04:39:59;4.10;99.90
9943;DHT22;5010;45.080;7.634;2024-01-30T04:42:27;4.10;99.90
9943;DHT22;5010;45.080;7.634;2024-01-30T04:44:55;4.10;99.90
9943;DHT22;5010;45.080;7.634;2024-01-30T04:47:23;4.10;99.90
9943;DHT22;5010;45.080;7.634;2024-01-30T04:49:52;4.10;99.90
9943;DHT22;5010;45.080;7.634;2024-01-30T04:52:19;4.20;99.90
9943;DHT22;5010;45.080;7.634;2024-01-30T04:54:47;4.20;99.90
9943;DHT22;5010;45.080;7.634;2024-01-30T04:57:16;4.20;99.90
9943;DHT22;5010;45.080;7.634;2024-01-30T04:59:44;4.20;99.90
9943;DHT22;5010;45.080;7.634;2024-01-30T05:02:12;4.20;99.90
9943;DHT22;5010;45.080;7.634;2024-01-30T05:04:41;4.20;99.90
9943;DHT22;5010;45.080;7.634;2024-01-30T05:07:09;4.30;99.90
9943;DHT22;5010;45.080;7.634;2024-01-30T05:09:37;4.30;99.90
9943;DHT22;5010;45.080;7.634;2024-01-30T05:12:05;4.20;99.90
9943;DHT22;5010;45.080;7.634;2024-01-30T05:14:34;4.20;99.90
9943;DHT22;5010;45.080;7.634;2024-01-30T05:17:02;4.20;99.90
9943;DHT22;5010;45.080;7.634;2024-01-30T05:19:30;4.10;99.90
9943;DHT22;5010;45.080;7.634;2024-01-30T05:21:58;4.10;99.90
9943;DHT22;5010;45.080;7.634;2024-01-30T05:24:26;4.10;99.90
9943;DHT22;5010;45.080;7.634;2024-01-30T05:26:54;4.10;99.90
9943;DHT22;5010;45.080;7.634;2024-01-30T05:29:22;4.00;99.90
9943;DHT22;5010;45.080;7.634;2024-01-30T05:31:52;4.00;99.90
9943;DHT22;5010;45.080;7.634;2024-01-30T05:34:20;4.00;99.90
9943;DHT22;5010;45.080;7.634;2024-01-30T05:36:48;4.10;99.90
9943;DHT22;5010;45.080;7.634;2024-01-30T05:39:15;4.00;99.90
9943;DHT22;5010;45.080;7.634;2024-01-30T05:41:43;4.00;99.90
9943;DHT22;5010;45.080;7.634;2024-01-30T05:44:11;4.00;99.90
9943;DHT22;5010;45.080;7.634;2024-01-30T05:46:39;4.00;99.90
9943;DHT22;5010;45.080;7.634;2024-01-30T05:49:09;4.00;99.90
9943;DHT22;5010;45.080;7.634;2024-01-30T05:51:37;4.00;99.90
9943;DHT22;5010;45.080;7.634;2024-01-30T05:54:05;4.00;99.90
9943;DHT22;5010;45.080;7.634;2024-01-30T05:56:33;4.00;99.90
9943;DHT22;5010;45.080;7.634;2024-01-30T05:59:01;3.90;99.90
9943;DHT22;5010;45.080;7.634;2024-01-30T06:01:29;3.90;99.90
9943;DHT22;5010;45.080;7.634;2024-01-30T06:03:57;3.90;1.00
9943;DHT22;5010;45.080;7.634;2024-01-30T06:06:26;3.90;1.00
9943;DHT22;5010;45.080;7.634;2024-01-30T06:08:54;3.90;1.00
9943;DHT22;5010;45.080;7.634;2024-01-30T06:11:22;3.90;1.00
9943;DHT22;5010;45.080;7.634;2024-01-30T06:13:50;3.90;1.00
9943;DHT22;5010;45.080;7.634;2024-01-30T06:16:18;3.90;1.00
9943;DHT22;5010;45.080;7.634;2024-01-30T06:18:47;4.00;1.00
9943;DHT22;5010;45.080;7.634;2024-01-30T06:21:15;3.90;1.00
9943;DHT22;5010;45.080;7.634;2024-01-30T06:23:44;3.80;1.00
9943;DHT22;5010;45.080;7.634;2024-01-30T06:26:12;3.80;1.00
9943;DHT22;5010;45.080;7.634;2024-01-30T06:28:40;3.90;1.00
9943;DHT22;5010;45.080;7.634;2024-01-30T06:31:08;3.90;1.00
9943;DHT22;5010;45.080;7.634;2024-01-30T06:33:36;3.90;1.00
9943;DHT22;5010;45.080;7.634;2024-01-30T06:36:04;3.90;1.00
9943;DHT22;5010;45.080;7.634;2024-01-30T06:38:32;3.90;1.00
9943;DHT22;5010;45.080;7.634;2024-01-30T06:41:02;4.00;1.00
9943;DHT22;5010;45.080;7.634;2024-01-30T06:43:30;4.00;1.00
9943;DHT22;5010;45.080;7.634;2024-01-30T06:45:57;4.00;1.00
9943;DHT22;5010;45.080;7.634;2024-01-30T06:48:25;4.00;1.00
9943;DHT22;5010;45.080;7.634;2024-01-30T06:50:54;4.10;1.00
9943;DHT22;5010;45.080;7.634;2024-01-30T06:53:23;4.00;1.00
9943;DHT22;5010;45.080;7.634;2024-01-30T06:55:52;4.10;1.00
9943;DHT22;5010;45.080;7.634;2024-01-30T06:58:22;4.10;1.00
9943;DHT22;5010;45.080;7.634;2024-01-30T07:00:49;4.10;99.90
9943;DHT22;5010;45.080;7.634;2024-01-30T07:03:17;4.10;1.00
9943;DHT22;5010;45.080;7.634;2024-01-30T07:05:45;4.10;1.00
9943;DHT22;5010;45.080;7.634;2024-01-30T07:08:13;4.00;1.00
9943;DHT22;5010;45.080;7.634;2024-01-30T07:10:43;4.00;1.00
9943;DHT22;5010;45.080;7.634;2024-01-30T07:13:11;4.00;1.00
9943;DHT22;5010;45.080;7.634;2024-01-30T07:15:40;4.10;1.00
9943;DHT22;5010;45.080;7.634;2024-01-30T07:18:08;4.10;1.00
9943;DHT22;5010;45.080;7.634;2024-01-30T07:20:37;4.10;1.00
9943;DHT22;5010;45.080;7.634;2024-01-30T07:23:08;4.20;1.00
9943;DHT22;5010;45.080;7.634;2024-01-30T07:25:40;4.20;1.00
9943;DHT22;5010;45.080;7.634;2024-01-30T07:28:08;4.20;99.90
9943;DHT22;5010;45.080;7.634;2024-01-30T07:30:37;4.30;1.00
9943;DHT22;5010;45.080;7.634;2024-01-30T07:33:06;4.40;1.00
9943;DHT22;5010;45.080;7.634;2024-01-30T07:35:35;4.60;99.90
9943;DHT22;5010;45.080;7.634;2024-01-30T07:38:03;4.80;99.90
9943;DHT22;5010;45.080;7.634;2024-01-30T07:40:31;4.90;70.20
9943;DHT22;5010;45.080;7.634;2024-01-30T07:42:59;5.00;1.00
9943;DHT22;5010;45.080;7.634;2024-01-30T07:45:27;5.10;17.70
9943;DHT22;5010;45.080;7.634;2024-01-30T07:47:58;5.40;1.00
9943;DHT22;5010;45.080;7.634;2024-01-30T07:50:28;5.60;1.00
9943;DHT22;5010;45.080;7.634;2024-01-30T07:52:56;5.80;99.90
9943;DHT22;5010;45.080;7.634;2024-01-30T07:55:24;5.90;1.00
9943;DHT22;5010;45.080;7.634;2024-01-30T07:57:55;5.90;1.00
9943;DHT22;5010;45.080;7.634;2024-01-30T08:00:23;6.00;1.00
9943;DHT22;5010;45.080;7.634;2024-01-30T08:02:50;6.10;16.10
9943;DHT22;5010;45.080;7.634;2024-01-30T08:05:20;6.20;1.00
9943;DHT22;5010;45.080;7.634;2024-01-30T08:07:50;6.20;1.00
9943;DHT22;5010;45.080;7.634;2024-01-30T08:10:18;6.10;99.90
9943;DHT22;5010;45.080;7.634;2024-01-30T08:12:46;5.90;99.90
9943;DHT22;5010;45.080;7.634;2024-01-30T08:15:14;5.60;1.00
9943;DHT22;5010;45.080;7.634;2024-01-30T08:17:43;5.50;93.70
9943;DHT22;5010;45.080;7.634;2024-01-30T08:20:11;5.40;1.00
9943;DHT22;5010;45.080;7.634;2024-01-30T08:22:40;5.50;1.00
9943;DHT22;5010;45.080;7.634;2024-01-30T08:25:09;5.70;1.00
9943;DHT22;5010;45.080;7.634;2024-01-30T08:27:37;5.80;1.00
9943;DHT22;5010;45.080;7.634;2024-01-30T08:30:07;5.80;99.90
9943;DHT22;5010;45.080;7.634;2024-01-30T08:32:35;5.90;99.90
9943;DHT22;5010;45.080;7.634;2024-01-30T08:35:03;6.00;99.90
9943;DHT22;5010;45.080;7.634;2024-01-30T08:37:31;6.10;1.00
9943;DHT22;5010;45.080;7.634;2024-01-30T08:39:59;6.20;1.00
9943;DHT22;5010;45.080;7.634;2024-01-30T08:42:30;6.30;1.00
9943;DHT22;5010;45.080;7.634;2024-01-30T08:44:58;6.50;1.00
9943;DHT22;5010;45.080;7.634;2024-01-30T08:47:25;6.60;1.00
9943;DHT22;5010;45.080;7.634;2024-01-30T08:49:53;6.70;1.00
9943;DHT22;5010;45.080;7.634;2024-01-30T08:52:21;6.70;99.90
9943;DHT22;5010;45.080;7.634;2024-01-30T08:54:49;6.80;1.00
9943;DHT22;5010;45.080;7.634;2024-01-30T08:57:16;6.90;1.00
9943;DHT22;5010;45.080;7.634;2024-01-30T08:59:46;6.90;1.00
9943;DHT22;5010;45.080;7.634;2024-01-30T09:02:14;6.90;99.90
9943;DHT22;5010;45.080;7.634;2024-01-30T09:04:44;7.00;1.00
9943;DHT22;5010;45.080;7.634;2024-01-30T09:07:12;7.10;1.00
9943;DHT22;5010;45.080;7.634;2024-01-30T09:09:40;7.20;1.00
9943;DHT22;5010;45.080;7.634;2024-01-30T09:12:08;7.30;1.00
9943;DHT22;5010;45.080;7.634;2024-01-30T09:14:38;7.30;71.30
9943;DHT22;5010;45.080;7.634;2024-01-30T09:17:08;7.50;99.90
9943;DHT22;5010;45.080;7.634;2024-01-30T09:19:35;7.70;1.00
9943;DHT22;5010;45.080;7.634;2024-01-30T09:22:04;7.90;90.10
9943;DHT22;5010;45.080;7.634;2024-01-30T09:24:32;8.00;1.00
9943;DHT22;5010;45.080;7.634;2024-01-30T09:27:00;8.20;1.00
9943;DHT22;5010;45.080;7.634;2024-01-30T09:29:28;8.50;99.90
9943;DHT22;5010;45.080;7.634;2024-01-30T09:31:56;8.70;1.00
9943;DHT22;5010;45.080;7.634;2024-01-30T09:34:25;8.90;1.00
9943;DHT22;5010;45.080;7.634;2024-01-30T09:36:53;9.30;1.00
9943;DHT22;5010;45.080;7.634;2024-01-30T09:39:21;9.50;43.00
9943;DHT22;5010;45.080;7.634;2024-01-30T09:41:51;9.70;1.00
9943;DHT22;5010;45.080;7.634;2024-01-30T09:44:23;10.00;1.00
9943;DHT22;5010;45.080;7.634;2024-01-30T09:46:52;10.30;1.00
9943;DHT22;5010;45.080;7.634;2024-01-30T09:49:20;10.40;1.00
9943;DHT22;5010;45.080;7.634;2024-01-30T09:51:52;10.50;1.00
9943;DHT22;5010;45.080;7.634;2024-01-30T09:54:21;10.70;1.00
9943;DHT22;5010;45.080;7.634;2024-01-30T09:56:49;10.90;1.00
9943;DHT22;5010;45.080;7.634;2024-01-30T09:59:17;11.00;99.90
9943;DHT22;5010;45.080;7.634;2024-01-30T10:01:45;11.10;99.90
9943;DHT22;5010;45.080;7.634;2024-01-30T10:04:13;11.20;99.90
9943;DHT22;5010;45.080;7.634;2024-01-30T10:06:40;11.40;99.90
9943;DHT22;5010;45.080;7.634;2024-01-30T10:09:10;11.30;99.90
9943;DHT22;5010;45.080;7.634;2024-01-30T10:11:39;11.30;99.90
9943;DHT22;5010;45.080;7.634;2024-01-30T10:14:07;11.30;99.90
9943;DHT22;5010;45.080;7.634;2024-01-30T10:16:34;11.30;99.90
9943;DHT22;5010;45.080;7.634;2024-01-30T10:19:02;11.30;99.90
9943;DHT22;5010;45.080;7.634;2024-01-30T10:21:30;11.30;99.90
9943;DHT22;5010;45.080;7.634;2024-01-30T10:23:58;11.40;99.90
9943;DHT22;5010;45.080;7.634;2024-01-30T10:26:28;11.50;99.90
9943;DHT22;5010;45.080;7.634;2024-01-30T10:29:00;11.70;99.90
9943;DHT22;5010;45.080;7.634;2024-01-30T10:31:28;12.00;99.90
9943;DHT22;5010;45.080;7.634;2024-01-30T10:33:56;12.00;91.50
9943;DHT22;5010;45.080;7.634;2024-01-30T10:36:28;12.00;99.90
9943;DHT22;5010;45.080;7.634;2024-01-30T10:38:59;12.10;84.10
9943;DHT22;5010;45.080;7.634;2024-01-30T10:41:31;12.00;54.00
9943;DHT22;5010;45.080;7.634;2024-01-30T10:44:08;11.70;61.00
9943;DHT22;5010;45.080;7.634;2024-01-30T10:46:38;11.40;99.90
9943;DHT22;5010;45.080;7.634;2024-01-30T10:49:07;11.40;99.90
9943;DHT22;5010;45.080;7.634;2024-01-30T10:51:39;11.60;99.90
9943;DHT22;5010;45.080;7.634;2024-01-30T10:54:08;11.90;99.90
9943;DHT22;5010;45.080;7.634;2024-01-30T10:56:39;12.20;79.40
9943;DHT22;5010;45.080;7.634;2024-01-30T10:59:08;12.50;1.00
9943;DHT22;5010;45.080;7.634;2024-01-30T11:01:37;12.80;1.00
9943;DHT22;5010;45.080;7.634;2024-01-30T11:04:05;13.10;1.00
9943;DHT22;5010;45.080;7.634;2024-01-30T11:06:41;13.20;1.00
9943;DHT22;5010;45.080;7.634;2024-01-30T11:09:11;13.10;1.00
9943;DHT22;5010;45.080;7.634;2024-01-30T11:11:51;12.80;1.00
9943;DHT22;5010;45.080;7.634;2024-01-30T11:14:25;12.70;1.00
9943;DHT22;5010;45.080;7.634;2024-01-30T11:16:56;12.30;1.00
9943;DHT22;5010;45.080;7.634;2024-01-30T11:19:25;12.00;1.00
9943;DHT22;5010;45.080;7.634;2024-01-30T11:21:53;11.90;1.00
9943;DHT22;5010;45.080;7.634;2024-01-30T11:24:23;11.80;24.80
9943;DHT22;5010;45.080;7.634;2024-01-30T11:26:58;11.80;47.20
9943;DHT22;5010;45.080;7.634;2024-01-30T11:29:28;11.80;87.90
9943;DHT22;5010;45.080;7.634;2024-01-30T11:31:56;11.80;81.00
9943;DHT22;5010;45.080;7.634;2024-01-30T11:34:24;11.70;70.20
9943;DHT22;5010;45.080;7.634;2024-01-30T11:36:55;11.70;99.90
9943;DHT22;5010;45.080;7.634;2024-01-30T11:39:25;12.00;98.70
9943;DHT22;5010;45.080;7.634;2024-01-30T11:41:54;12.20;90.00
9943;DHT22;5010;45.080;7.634;2024-01-30T11:44:23;12.40;37.00
9943;DHT22;5010;45.080;7.634;2024-01-30T11:46:52;12.60;1.00
9943;DHT22;5010;45.080;7.634;2024-01-30T11:49:20;12.60;1.00
9943;DHT22;5010;45.080;7.634;2024-01-30T11:51:48;12.70;1.00
9943;DHT22;5010;45.080;7.634;2024-01-30T11:54:16;12.80;1.00
9943;DHT22;5010;45.080;7.634;2024-01-30T11:56:44;12.60;1.00
9943;DHT22;5010;45.080;7.634;2024-01-30T11:59:12;12.60;1.00
9943;DHT22;5010;45.080;7.634;2024-01-30T12:01:42;13.00;1.00
9943;DHT22;5010;45.080;7.634;2024-01-30T12:04:10;13.10;1.00
9943;DHT22;5010;45.080;7.634;2024-01-30T12:06:39;13.30;1.00
9943;DHT22;5010;45.080;7.634;2024-01-30T12:09:07;13.60;1.00
9943;DHT22;5010;45.080;7.634;2024-01-30T12:11:44;13.60;1.00
9943;DHT22;5010;45.080;7.634;2024-01-30T12:14:13;13.20;1.00
9943;DHT22;5010;45.080;7.634;2024-01-30T12:16:42;12.90;1.00
9943;DHT22;5010;45.080;7.634;2024-01-30T12:19:10;12.70;1.00
9943;DHT22;5010;45.080;7.634;2024-01-30T12:21:39;12.70;1.00
9943;DHT22;5010;45.080;7.634;2024-01-30T12:24:07;12.90;1.00
9943;DHT22;5010;45.080;7.634;2024-01-30T12:26:35;13.20;1.00
9943;DHT22;5010;45.080;7.634;2024-01-30T12:29:04;13.30;1.00
9943;DHT22;5010;45.080;7.634;2024-01-30T12:31:32;13.20;1.00
9943;DHT22;5010;45.080;7.634;2024-01-30T12:34:02;13.10;1.00
9943;DHT22;5010;45.080;7.634;2024-01-30T12:36:29;13.30;1.00
9943;DHT22;5010;45.080;7.634;2024-01-30T12:38:58;13.50;1.00
9943;DHT22;5010;45.080;7.634;2024-01-30T12:41:26;13.60;1.00
9943;DHT22;5010;45.080;7.634;2024-01-30T12:43:57;13.70;1.00
9943;DHT22;5010;45.080;7.634;2024-01-30T12:46:28;13.50;1.00
9943;DHT22;5010;45.080;7.634;2024-01-30T12:48:56;13.60;1.00
9943;DHT22;5010;45.080;7.634;2024-01-30T12:51:25;13.80;1.00
9943;DHT22;5010;45.080;7.634;2024-01-30T12:53:53;13.70;1.00
9943;DHT22;5010;45.080;7.634;2024-01-30T12:56:21;13.60;1.00
9943;DHT22;5010;45.080;7.634;2024-01-30T12:58:49;13.70;1.00
9943;DHT22;5010;45.080;7.634;2024-01-30T13:01:17;13.70;1.00
9943;DHT22;5010;45.080;7.634;2024-01-30T13:03:45;13.50;1.00
9943;DHT22;5010;45.080;7.634;2024-01-30T13:06:13;13.60;1.00
9943;DHT22;5010;45.080;7.634;2024-01-30T13:08:42;13.40;1.00
9943;DHT22;5010;45.080;7.634;2024-01-30T13:11:10;13.20;1.00
9943;DHT22;5010;45.080;7.634;2024-01-30T13:13:38;13.30;1.00
9943;DHT22;5010;45.080;7.634;2024-01-30T13:16:06;13.30;1.00
9943;DHT22;5010;45.080;7.634;2024-01-30T13:18:35;13.50;1.00
9943;DHT22;5010;45.080;7.634;2024-01-30T13:21:03;13.70;1.00
9943;DHT22;5010;45.080;7.634;2024-01-30T13:23:31;13.70;1.00
9943;DHT22;5010;45.080;7.634;2024-01-30T13:26:00;13.80;1.00
9943;DHT22;5010;45.080;7.634;2024-01-30T13:28:28;13.80;1.00
9943;DHT22;5010;45.080;7.634;2024-01-30T13:30:56;13.60;1.00
9943;DHT22;5010;45.080;7.634;2024-01-30T13:33:24;13.50;1.00
9943;DHT22;5010;45.080;7.634;2024-01-30T13:35:52;13.20;1.00
9943;DHT22;5010;45.080;7.634;2024-01-30T13:38:20;13.10;1.00
9943;DHT22;5010;45.080;7.634;2024-01-30T13:40:47;13.10;1.00
9943;DHT22;5010;45.080;7.634;2024-01-30T13:43:17;13.20;1.00
9943;DHT22;5010;45.080;7.634;2024-01-30T13:45:45;13.10;1.00
9943;DHT22;5010;45.080;7.634;2024-01-30T13:48:13;12.90;1.00
9943;DHT22;5010;45.080;7.634;2024-01-30T13:50:41;12.70;1.00
9943;DHT22;5010;45.080;7.634;2024-01-30T13:53:09;12.60;1.00
9943;DHT22;5010;45.080;7.634;2024-01-30T13:55:37;12.50;1.00
9943;DHT22;5010;45.080;7.634;2024-01-30T13:58:05;12.50;1.00
9943;DHT22;5010;45.080;7.634;2024-01-30T14:00:35;12.80;1.00
9943;DHT22;5010;45.080;7.634;2024-01-30T14:03:03;12.80;1.00
9943;DHT22;5010;45.080;7.634;2024-01-30T14:05:31;12.80;1.00
9943;DHT22;5010;45.080;7.634;2024-01-30T14:08:00;12.80;1.00
9943;DHT22;5010;45.080;7.634;2024-01-30T14:10:28;12.90;1.00
9943;DHT22;5010;45.080;7.634;2024-01-30T14:12:56;13.00;1.00
9943;DHT22;5010;45.080;7.634;2024-01-30T14:15:24;13.10;1.00
9943;DHT22;5010;45.080;7.634;2024-01-30T14:17:53;13.10;1.00
9943;DHT22;5010;45.080;7.634;2024-01-30T14:20:21;13.20;1.00
9943;DHT22;5010;45.080;7.634;2024-01-30T14:22:49;13.20;1.00
9943;DHT22;5010;45.080;7.634;2024-01-30T14:25:17;13.10;1.00
9943;DHT22;5010;45.080;7.634;2024-01-30T14:27:45;12.80;1.00
9943;DHT22;5010;45.080;7.634;2024-01-30T14:30:13;12.70;1.00
9943;DHT22;5010;45.080;7.634;2024-01-30T14:32:41;12.70;1.00
9943;DHT22;5010;45.080;7.634;2024-01-30T14:35:12;12.80;1.00
9943;DHT22;5010;45.080;7.634;2024-01-30T14:37:40;12.80;1.00
9943;DHT22;5010;45.080;7.634;2024-01-30T14:40:08;12.70;1.00
9943;DHT22;5010;45.080;7.634;2024-01-30T14:42:36;12.40;1.00
9943;DHT22;5010;45.080;7.634;2024-01-30T14:45:05;12.40;1.00
9943;DHT22;5010;45.080;7.634;2024-01-30T14:47:33;12.50;21.50
9943;DHT22;5010;45.080;7.634;2024-01-30T14:50:01;12.50;1.00
9943;DHT22;5010;45.080;7.634;2024-01-30T14:52:31;12.40;1.00
9943;DHT22;5010;45.080;7.634;2024-01-30T14:54:59;12.40;15.80
9943;DHT22;5010;45.080;7.634;2024-01-30T14:57:28;12.20;8.70
9943;DHT22;5010;45.080;7.634;2024-01-30T14:59:56;12.10;23.10
9943;DHT22;5010;45.080;7.634;2024-01-30T15:02:24;11.80;73.60
9943;DHT22;5010;45.080;7.634;2024-01-30T15:04:51;11.60;99.90
9943;DHT22;5010;45.080;7.634;2024-01-30T15:07:19;11.50;99.90
9943;DHT22;5010;45.080;7.634;2024-01-30T15:09:48;11.30;99.90
9943;DHT22;5010;45.080;7.634;2024-01-30T15:12:16;11.20;99.90
9943;DHT22;5010;45.080;7.634;2024-01-30T15:14:44;11.10;99.90
9943;DHT22;5010;45.080;7.634;2024-01-30T15:17:16;11.10;99.90
9943;DHT22;5010;45.080;7.634;2024-01-30T15:19:44;11.00;99.90
9943;DHT22;5010;45.080;7.634;2024-01-30T15:22:13;10.90;99.90
9943;DHT22;5010;45.080;7.634;2024-01-30T15:24:41;10.90;99.90
9943;DHT22;5010;45.080;7.634;2024-01-30T15:27:11;11.00;99.90
9943;DHT22;5010;45.080;7.634;2024-01-30T15:29:38;10.90;99.90
9943;DHT22;5010;45.080;7.634;2024-01-30T15:32:06;11.00;99.90
9943;DHT22;5010;45.080;7.634;2024-01-30T15:34:34;10.90;99.90
9943;DHT22;5010;45.080;7.634;2024-01-30T15:37:02;10.90;99.90
9943;DHT22;5010;45.080;7.634;2024-01-30T15:39:30;10.90;1.00
9943;DHT22;5010;45.080;7.634;2024-01-30T15:41:58;10.80;1.00
9943;DHT22;5010;45.080;7.634;2024-01-30T15:44:28;10.80;1.00
9943;DHT22;5010;45.080;7.634;2024-01-30T15:46:57;10.70;1.00
9943;DHT22;5010;45.080;7.634;2024-01-30T15:49:24;10.70;1.00
9943;DHT22;5010;45.080;7.634;2024-01-30T15:51:52;10.60;1.00
9943;DHT22;5010;45.080;7.634;2024-01-30T15:54:20;10.50;1.00
9943;DHT22;5010;45.080;7.634;2024-01-30T15:56:48;10.50;99.90
9943;DHT22;5010;45.080;7.634;2024-01-30T15:59:16;10.50;99.90
9943;DHT22;5010;45.080;7.634;2024-01-30T16:01:45;10.50;1.00
9943;DHT22;5010;45.080;7.634;2024-01-30T16:04:15;10.40;1.00
9943;DHT22;5010;45.080;7.634;2024-01-30T16:06:42;10.40;1.00
9943;DHT22;5010;45.080;7.634;2024-01-30T16:09:10;10.20;1.00
9943;DHT22;5010;45.080;7.634;2024-01-30T16:11:39;9.90;99.90
9943;DHT22;5010;45.080;7.634;2024-01-30T16:14:07;9.90;1.00
9943;DHT22;5010;45.080;7.634;2024-01-30T16:16:35;9.90;1.00
9943;DHT22;5010;45.080;7.634;2024-01-30T16:19:04;9.90;99.90
9943;DHT22;5010;45.080;7.634;2024-01-30T16:21:32;9.90;1.00
9943;DHT22;5010;45.080;7.634;2024-01-30T16:24:00;9.80;1.00
9943;DHT22;5010;45.080;7.634;2024-01-30T16:26:28;9.80;1.00
9943;DHT22;5010;45.080;7.634;2024-01-30T16:28:56;9.70;99.90